This is the latest recevied weather packets stored in our database for station/object SV5BYP-10. If no packets are shown the sender has not sent any weather packets the latest 1 day(s).
| Time | Temp. | Humidity | Pressure | Rain* | Wind** | Luminosity | Snow |
|---|---|---|---|---|---|---|---|
| 1778101566 | 21.67° C | 47% | 1018.5 hPa | - | - | - | - |
| 1778100966 | 21.11° C | 48% | 1018.4 hPa | - | - | - | - |
| 1778100366 | 21.11° C | 48% | 1018.4 hPa | - | - | - | - |
| 1778097365 | 21.67° C | 48% | 1018.2 hPa | - | - | - | - |
| 1778096763 | 21.67° C | 49% | 1018.1 hPa | - | - | - | - |
| 1778093762 | 21.67° C | 49% | 1017.7 hPa | - | - | - | - |
| 1778090161 | 22.22° C | 49% | 1017 hPa | - | - | - | - |
| 1778087160 | 22.78° C | 47% | 1016.7 hPa | - | - | - | - |
| 1778086560 | 22.78° C | 48% | 1016.6 hPa | - | - | - | - |
| 1778083559 | 23.33° C | 45% | 1016.3 hPa | - | - | - | - |
| 1778082959 | 23.33° C | 45% | 1016.3 hPa | - | - | - | - |
| 1778079958 | 23.33° C | 46% | 1016.2 hPa | - | - | - | - |
| 1778079358 | 23.33° C | 46% | 1016.2 hPa | - | - | - | - |
| 1778076357 | 23.89° C | 45% | 1016.3 hPa | - | - | - | - |
| 1778075757 | 23.89° C | 44% | 1016.3 hPa | - | - | - | - |
| 1778049156 | 21.67° C | 48% | 1016.7 hPa | - | - | - | - |
| 1778048556 | 21.11° C | 48% | 1016.6 hPa | - | - | - | - |
| 1778046755 | 21.67° C | 48% | 1016.5 hPa | - | - | - | - |
| 1778046155 | 21.67° C | 48% | 1016.4 hPa | - | - | - | - |
| 1778045555 | 21.67° C | 49% | 1016.5 hPa | - | - | - | - |
| 1778044955 | 21.67° C | 48% | 1016.3 hPa | - | - | - | - |
| 1778044354 | 21.67° C | 48% | 1016.2 hPa | - | - | - | - |
| 1778043154 | 20.56° C | 51% | 1016.1 hPa | - | - | - | - |
| 1778042554 | 21.11° C | 50% | 1016.1 hPa | - | - | - | - |
| 1778041954 | 21.11° C | 50% | 1016 hPa | - | - | - | - |
* Rain since midnight (hover to see other rain measurements)
** Current wind speed in m/s (hover to see current wind gust speed)